Terminal Aerodrome Forecast
Issued by NWS Boston, MA

Home | Current Version | Previous Version | Text Only | Print | Product List | Glossary On
Versions: 1 2 3 4 5 6 7 8 9 10 11 12 13 14 15 16 17 18 19 20 21 22 23 24
000
FTUS41 KBOX 181453 AAA
TAFPVD
TAF AMD
KPVD 181453Z 1815/1912 18010G19KT P6SM VCSH SCT008 OVC015
     FM181700 18012G19KT 6SM -RA BR OVC008
     FM182000 18012G20KT 6SM RA BR VCTS OVC008CB
     FM182200 18011G19KT 3SM RA BR VCTS OVC004CB
     FM190000 19011G19KT 2SM RA OVC004
     FM190800 19008KT 3SM -RA BR OVC008=

USA.gov is the U.S. government's official web portal to all federal, state and local government web resources and services.